sensor_id;sensor_type;location;lat;lon;timestamp;noise_LAeq;noise_LA_min;noise_LA_max;noise_LA01;noise_LA95
64996;Laerm;51545;51.568;6.998;2023-11-22T00:01:59;39.80;35.63;44.84;;
64996;Laerm;51545;51.568;6.998;2023-11-22T00:04:27;39.95;32.31;57.23;;
64996;Laerm;51545;51.568;6.998;2023-11-22T00:07:10;37.73;31.28;45.63;;
64996;Laerm;51545;51.568;6.998;2023-11-22T00:09:42;39.03;32.08;47.16;;
64996;Laerm;51545;51.568;6.998;2023-11-22T00:12:11;40.22;34.26;51.80;;
64996;Laerm;51545;51.568;6.998;2023-11-22T00:14:50;38.92;33.94;44.93;;
64996;Laerm;51545;51.568;6.998;2023-11-22T00:17:20;37.86;33.15;50.96;;
64996;Laerm;51545;51.568;6.998;2023-11-22T00:19:49;41.72;33.55;51.78;;
64996;Laerm;51545;51.568;6.998;2023-11-22T00:22:28;39.12;32.43;51.42;;
64996;Laerm;51545;51.568;6.998;2023-11-22T00:25:02;40.49;34.20;45.60;;
64996;Laerm;51545;51.568;6.998;2023-11-22T00:27:35;43.43;34.70;52.82;;
64996;Laerm;51545;51.568;6.998;2023-11-22T00:30:05;42.14;34.27;52.78;;
64996;Laerm;51545;51.568;6.998;2023-11-22T00:32:36;37.57;32.80;46.11;;
64996;Laerm;51545;51.568;6.998;2023-11-22T00:35:11;41.16;34.97;50.81;;
64996;Laerm;51545;51.568;6.998;2023-11-22T00:37:43;40.88;33.93;49.47;;
64996;Laerm;51545;51.568;6.998;2023-11-22T00:40:12;43.23;35.05;52.10;;
64996;Laerm;51545;51.568;6.998;2023-11-22T00:42:44;42.70;34.33;49.39;;
64996;Laerm;51545;51.568;6.998;2023-11-22T00:45:14;38.34;31.92;47.02;;
64996;Laerm;51545;51.568;6.998;2023-11-22T00:47:43;39.10;33.87;48.50;;
64996;Laerm;51545;51.568;6.998;2023-11-22T00:50:12;41.35;33.31;49.13;;
64996;Laerm;51545;51.568;6.998;2023-11-22T00:52:50;43.73;35.04;56.00;;
64996;Laerm;51545;51.568;6.998;2023-11-22T00:55:18;43.04;38.39;51.16;;
64996;Laerm;51545;51.568;6.998;2023-11-22T00:57:46;42.73;35.80;52.32;;
64996;Laerm;51545;51.568;6.998;2023-11-22T01:00:18;44.14;36.86;52.25;;
64996;Laerm;51545;51.568;6.998;2023-11-22T01:02:51;45.05;38.69;51.79;;
64996;Laerm;51545;51.568;6.998;2023-11-22T01:05:20;43.68;34.36;53.65;;
64996;Laerm;51545;51.568;6.998;2023-11-22T01:07:50;41.57;33.71;53.10;;
64996;Laerm;51545;51.568;6.998;2023-11-22T01:10:22;46.08;35.41;55.26;;
64996;Laerm;51545;51.568;6.998;2023-11-22T01:12:50;43.29;36.61;51.35;;
64996;Laerm;51545;51.568;6.998;2023-11-22T01:15:19;43.61;36.94;54.99;;
64996;Laerm;51545;51.568;6.998;2023-11-22T01:17:56;44.94;37.36;51.80;;
64996;Laerm;51545;51.568;6.998;2023-11-22T01:20:25;44.11;38.87;59.31;;
64996;Laerm;51545;51.568;6.998;2023-11-22T01:23:02;42.18;34.30;51.95;;
64996;Laerm;51545;51.568;6.998;2023-11-22T01:25:30;40.27;35.53;48.57;;
64996;Laerm;51545;51.568;6.998;2023-11-22T01:28:01;41.07;35.16;52.14;;
64996;Laerm;51545;51.568;6.998;2023-11-22T01:30:30;41.42;35.35;49.95;;
64996;Laerm;51545;51.568;6.998;2023-11-22T01:33:00;42.39;37.57;47.29;;
64996;Laerm;51545;51.568;6.998;2023-11-22T01:35:31;42.83;37.85;49.25;;
64996;Laerm;51545;51.568;6.998;2023-11-22T01:38:07;42.98;34.97;52.33;;
64996;Laerm;51545;51.568;6.998;2023-11-22T01:40:40;40.76;34.00;46.61;;
64996;Laerm;51545;51.568;6.998;2023-11-22T01:43:19;39.46;35.02;47.50;;
64996;Laerm;51545;51.568;6.998;2023-11-22T01:45:57;41.18;33.71;49.10;;
64996;Laerm;51545;51.568;6.998;2023-11-22T01:48:33;39.93;34.23;49.39;;
64996;Laerm;51545;51.568;6.998;2023-11-22T01:51:12;41.29;32.69;50.49;;
64996;Laerm;51545;51.568;6.998;2023-11-22T01:53:40;42.30;36.61;50.28;;
64996;Laerm;51545;51.568;6.998;2023-11-22T01:56:09;39.84;34.61;46.27;;
64996;Laerm;51545;51.568;6.998;2023-11-22T01:58:37;40.93;34.12;45.37;;
64996;Laerm;51545;51.568;6.998;2023-11-22T02:01:04;41.46;35.06;51.04;;
64996;Laerm;51545;51.568;6.998;2023-11-22T02:03:30;40.00;34.61;50.51;;
64996;Laerm;51545;51.568;6.998;2023-11-22T02:05:56;40.37;34.33;47.14;;
64996;Laerm;51545;51.568;6.998;2023-11-22T02:08:22;39.88;35.12;45.53;;
64996;Laerm;51545;51.568;6.998;2023-11-22T02:11:00;40.98;35.15;46.59;;
64996;Laerm;51545;51.568;6.998;2023-11-22T02:13:30;41.11;36.24;51.43;;
64996;Laerm;51545;51.568;6.998;2023-11-22T02:15:59;43.33;37.36;50.78;;
64996;Laerm;51545;51.568;6.998;2023-11-22T02:18:27;41.06;35.85;45.40;;
64996;Laerm;51545;51.568;6.998;2023-11-22T02:20:53;42.73;37.41;51.37;;
64996;Laerm;51545;51.568;6.998;2023-11-22T02:23:19;41.48;35.78;48.05;;
64996;Laerm;51545;51.568;6.998;2023-11-22T02:25:48;40.46;36.59;44.10;;
64996;Laerm;51545;51.568;6.998;2023-11-22T02:28:14;42.53;37.42;49.53;;
64996;Laerm;51545;51.568;6.998;2023-11-22T02:30:41;41.93;36.30;50.43;;
64996;Laerm;51545;51.568;6.998;2023-11-22T02:33:07;45.16;39.85;51.73;;
64996;Laerm;51545;51.568;6.998;2023-11-22T02:35:33;43.36;39.26;51.99;;
64996;Laerm;51545;51.568;6.998;2023-11-22T02:38:00;42.79;35.53;52.66;;
64996;Laerm;51545;51.568;6.998;2023-11-22T02:40:27;42.42;37.17;52.49;;
64996;Laerm;51545;51.568;6.998;2023-11-22T02:42:54;44.34;37.28;52.17;;
64996;Laerm;51545;51.568;6.998;2023-11-22T02:45:27;44.21;37.48;51.67;;
64996;Laerm;51545;51.568;6.998;2023-11-22T02:47:53;44.94;37.79;55.89;;
64996;Laerm;51545;51.568;6.998;2023-11-22T02:50:20;44.05;37.40;53.30;;
64996;Laerm;51545;51.568;6.998;2023-11-22T02:52:46;42.90;37.00;50.73;;
64996;Laerm;51545;51.568;6.998;2023-11-22T02:55:12;45.56;38.02;54.13;;
64996;Laerm;51545;51.568;6.998;2023-11-22T02:57:39;45.79;39.41;55.95;;
64996;Laerm;51545;51.568;6.998;2023-11-22T03:00:08;42.39;36.08;48.95;;
64996;Laerm;51545;51.568;6.998;2023-11-22T03:02:34;44.31;39.40;48.96;;
64996;Laerm;51545;51.568;6.998;2023-11-22T03:05:01;43.94;38.67;52.94;;
64996;Laerm;51545;51.568;6.998;2023-11-22T03:07:27;44.31;37.64;52.04;;
64996;Laerm;51545;51.568;6.998;2023-11-22T03:09:53;44.44;39.64;49.22;;
64996;Laerm;51545;51.568;6.998;2023-11-22T03:12:23;43.51;37.97;51.20;;
64996;Laerm;51545;51.568;6.998;2023-11-22T03:14:49;43.16;37.57;48.79;;
64996;Laerm;51545;51.568;6.998;2023-11-22T03:17:15;43.17;38.20;50.16;;
64996;Laerm;51545;51.568;6.998;2023-11-22T03:19:41;42.19;35.16;50.56;;
64996;Laerm;51545;51.568;6.998;2023-11-22T03:22:07;46.46;41.16;54.10;;
64996;Laerm;51545;51.568;6.998;2023-11-22T03:24:37;45.38;36.75;53.16;;
64996;Laerm;51545;51.568;6.998;2023-11-22T03:27:03;46.14;37.79;54.19;;
64996;Laerm;51545;51.568;6.998;2023-11-22T03:29:29;44.90;40.73;49.66;;
64996;Laerm;51545;51.568;6.998;2023-11-22T03:31:55;44.91;39.66;53.77;;
64996;Laerm;51545;51.568;6.998;2023-11-22T03:34:21;45.98;41.42;56.08;;
64996;Laerm;51545;51.568;6.998;2023-11-22T03:36:49;44.56;40.94;51.42;;
64996;Laerm;51545;51.568;6.998;2023-11-22T03:39:15;46.75;42.48;51.41;;
64996;Laerm;51545;51.568;6.998;2023-11-22T03:41:42;44.91;38.04;51.07;;
64996;Laerm;51545;51.568;6.998;2023-11-22T03:44:09;46.89;40.62;52.11;;
64996;Laerm;51545;51.568;6.998;2023-11-22T03:46:39;47.98;43.15;54.34;;
64996;Laerm;51545;51.568;6.998;2023-11-22T03:49:06;47.17;41.72;52.71;;
64996;Laerm;51545;51.568;6.998;2023-11-22T03:51:33;47.63;43.81;53.39;;
64996;Laerm;51545;51.568;6.998;2023-11-22T03:53:59;48.05;43.11;55.14;;
64996;Laerm;51545;51.568;6.998;2023-11-22T03:56:26;46.84;42.52;52.56;;
64996;Laerm;51545;51.568;6.998;2023-11-22T03:58:52;47.11;42.73;51.61;;
64996;Laerm;51545;51.568;6.998;2023-11-22T04:01:19;47.08;42.15;54.64;;
64996;Laerm;51545;51.568;6.998;2023-11-22T04:03:48;46.86;41.48;57.51;;
64996;Laerm;51545;51.568;6.998;2023-11-22T04:06:16;47.43;41.55;52.64;;
64996;Laerm;51545;51.568;6.998;2023-11-22T04:08:46;46.95;43.42;51.63;;
64996;Laerm;51545;51.568;6.998;2023-11-22T04:11:12;47.20;43.25;51.83;;
64996;Laerm;51545;51.568;6.998;2023-11-22T04:13:38;47.51;43.19;54.90;;
64996;Laerm;51545;51.568;6.998;2023-11-22T04:16:12;46.68;42.97;51.81;;
64996;Laerm;51545;51.568;6.998;2023-11-22T04:18:40;46.73;43.22;50.32;;
64996;Laerm;51545;51.568;6.998;2023-11-22T04:21:07;47.14;42.96;53.02;;
64996;Laerm;51545;51.568;6.998;2023-11-22T04:23:33;46.40;42.02;51.24;;
64996;Laerm;51545;51.568;6.998;2023-11-22T04:26:00;47.20;43.08;53.51;;
64996;Laerm;51545;51.568;6.998;2023-11-22T04:28:28;47.44;44.39;50.25;;
64996;Laerm;51545;51.568;6.998;2023-11-22T04:30:57;46.81;42.93;59.64;;
64996;Laerm;51545;51.568;6.998;2023-11-22T04:33:24;46.63;43.33;51.82;;
64996;Laerm;51545;51.568;6.998;2023-11-22T04:35:50;46.22;43.07;58.49;;
64996;Laerm;51545;51.568;6.998;2023-11-22T04:38:17;46.86;42.32;64.67;;
64996;Laerm;51545;51.568;6.998;2023-11-22T04:40:44;47.07;42.01;66.28;;
64996;Laerm;51545;51.568;6.998;2023-11-22T04:43:10;50.08;42.70;68.15;;
64996;Laerm;51545;51.568;6.998;2023-11-22T04:45:37;49.76;43.84;58.48;;
64996;Laerm;51545;51.568;6.998;2023-11-22T04:48:04;45.72;43.27;48.73;;
64996;Laerm;51545;51.568;6.998;2023-11-22T04:50:30;46.44;43.69;49.19;;
64996;Laerm;51545;51.568;6.998;2023-11-22T04:52:56;46.56;42.81;50.68;;
64996;Laerm;51545;51.568;6.998;2023-11-22T04:55:25;45.78;42.82;49.68;;
64996;Laerm;51545;51.568;6.998;2023-11-22T04:57:53;46.00;42.41;48.62;;
64996;Laerm;51545;51.568;6.998;2023-11-22T05:00:20;45.20;41.71;50.12;;
64996;Laerm;51545;51.568;6.998;2023-11-22T05:02:48;45.57;42.59;49.44;;
64996;Laerm;51545;51.568;6.998;2023-11-22T05:05:14;46.95;42.55;60.41;;
64996;Laerm;51545;51.568;6.998;2023-11-22T05:07:47;45.26;42.81;56.36;;
64996;Laerm;51545;51.568;6.998;2023-11-22T05:10:14;46.08;43.15;61.04;;
64996;Laerm;51545;51.568;6.998;2023-11-22T05:12:41;45.64;42.85;50.44;;
64996;Laerm;51545;51.568;6.998;2023-11-22T05:15:08;46.35;43.57;57.91;;
64996;Laerm;51545;51.568;6.998;2023-11-22T05:17:35;46.50;42.56;61.00;;
64996;Laerm;51545;51.568;6.998;2023-11-22T05:20:01;45.85;42.81;50.88;;
64996;Laerm;51545;51.568;6.998;2023-11-22T05:22:27;46.87;43.66;51.77;;
64996;Laerm;51545;51.568;6.998;2023-11-22T05:24:53;47.17;44.31;59.73;;
64996;Laerm;51545;51.568;6.998;2023-11-22T05:27:19;45.82;42.91;48.52;;
64996;Laerm;51545;51.568;6.998;2023-11-22T05:29:45;45.77;42.39;51.19;;
64996;Laerm;51545;51.568;6.998;2023-11-22T05:32:11;45.80;42.84;51.65;;
64996;Laerm;51545;51.568;6.998;2023-11-22T05:34:40;46.22;43.48;56.63;;
64996;Laerm;51545;51.568;6.998;2023-11-22T05:37:06;46.96;43.30;54.02;;
64996;Laerm;51545;51.568;6.998;2023-11-22T05:39:32;47.50;43.91;57.55;;
64996;Laerm;51545;51.568;6.998;2023-11-22T05:41:58;47.15;43.22;53.04;;
64996;Laerm;51545;51.568;6.998;2023-11-22T05:44:25;46.13;42.86;49.12;;
64996;Laerm;51545;51.568;6.998;2023-11-22T05:46:51;45.71;42.25;51.13;;
64996;Laerm;51545;51.568;6.998;2023-11-22T05:49:17;45.12;42.45;48.78;;
64996;Laerm;51545;51.568;6.998;2023-11-22T05:51:43;46.52;42.08;62.78;;
64996;Laerm;51545;51.568;6.998;2023-11-22T05:54:11;47.15;43.24;55.82;;
64996;Laerm;51545;51.568;6.998;2023-11-22T05:56:38;47.59;44.00;62.09;;
64996;Laerm;51545;51.568;6.998;2023-11-22T05:59:04;46.12;41.80;49.48;;
64996;Laerm;51545;51.568;6.998;2023-11-22T06:01:30;46.56;43.12;49.87;;
64996;Laerm;51545;51.568;6.998;2023-11-22T06:03:56;46.61;43.80;51.87;;
64996;Laerm;51545;51.568;6.998;2023-11-22T06:06:22;46.96;43.06;50.88;;
64996;Laerm;51545;51.568;6.998;2023-11-22T06:08:49;47.23;44.31;51.31;;
64996;Laerm;51545;51.568;6.998;2023-11-22T06:11:17;47.69;43.92;57.86;;
64996;Laerm;51545;51.568;6.998;2023-11-22T06:13:47;46.77;43.75;51.72;;
64996;Laerm;51545;51.568;6.998;2023-11-22T06:16:13;58.72;43.67;81.36;;
64996;Laerm;51545;51.568;6.998;2023-11-22T06:18:40;49.01;43.31;66.40;;
64996;Laerm;51545;51.568;6.998;2023-11-22T06:21:07;46.55;43.07;52.33;;
64996;Laerm;51545;51.568;6.998;2023-11-22T06:23:34;49.74;42.41;63.88;;
64996;Laerm;51545;51.568;6.998;2023-11-22T06:26:00;46.88;44.35;53.52;;
64996;Laerm;51545;51.568;6.998;2023-11-22T06:28:26;46.15;42.50;53.89;;
64996;Laerm;51545;51.568;6.998;2023-11-22T06:30:52;46.19;42.98;52.91;;
64996;Laerm;51545;51.568;6.998;2023-11-22T06:33:18;45.55;42.36;52.19;;
64996;Laerm;51545;51.568;6.998;2023-11-22T06:35:45;46.97;43.64;55.73;;
64996;Laerm;51545;51.568;6.998;2023-11-22T06:38:11;53.16;43.45;79.64;;
64996;Laerm;51545;51.568;6.998;2023-11-22T06:40:37;46.95;43.68;56.54;;
64996;Laerm;51545;51.568;6.998;2023-11-22T06:43:06;47.62;44.08;69.38;;
64996;Laerm;51545;51.568;6.998;2023-11-22T06:45:32;48.59;44.05;64.29;;
64996;Laerm;51545;51.568;6.998;2023-11-22T06:47:58;47.09;44.16;51.36;;
64996;Laerm;51545;51.568;6.998;2023-11-22T06:50:24;54.04;43.61;73.81;;
64996;Laerm;51545;51.568;6.998;2023-11-22T06:52:52;52.28;44.79;68.01;;
64996;Laerm;51545;51.568;6.998;2023-11-22T06:55:19;51.30;44.82;76.22;;
64996;Laerm;51545;51.568;6.998;2023-11-22T06:57:45;48.31;44.66;60.45;;
64996;Laerm;51545;51.568;6.998;2023-11-22T07:00:14;51.55;46.70;62.11;;
64996;Laerm;51545;51.568;6.998;2023-11-22T07:02:42;49.46;47.43;53.80;;
64996;Laerm;51545;51.568;6.998;2023-11-22T07:05:08;50.21;45.85;58.81;;
64996;Laerm;51545;51.568;6.998;2023-11-22T07:07:36;52.00;46.46;59.72;;
64996;Laerm;51545;51.568;6.998;2023-11-22T07:10:02;47.30;44.03;54.25;;
64996;Laerm;51545;51.568;6.998;2023-11-22T07:12:32;46.73;43.97;52.22;;
64996;Laerm;51545;51.568;6.998;2023-11-22T07:14:59;48.09;43.95;61.03;;
64996;Laerm;51545;51.568;6.998;2023-11-22T07:17:27;46.96;43.36;62.15;;
64996;Laerm;51545;51.568;6.998;2023-11-22T07:19:54;49.36;42.80;61.80;;
64996;Laerm;51545;51.568;6.998;2023-11-22T07:22:22;45.99;42.23;65.29;;
64996;Laerm;51545;51.568;6.998;2023-11-22T07:24:54;45.89;42.69;60.31;;
64996;Laerm;51545;51.568;6.998;2023-11-22T07:27:20;46.29;42.54;58.10;;
64996;Laerm;51545;51.568;6.998;2023-11-22T07:29:48;45.83;42.29;52.56;;
64996;Laerm;51545;51.568;6.998;2023-11-22T07:32:15;46.99;43.58;62.96;;
64996;Laerm;51545;51.568;6.998;2023-11-22T07:34:41;47.91;43.76;60.11;;
64996;Laerm;51545;51.568;6.998;2023-11-22T07:37:07;46.80;42.37;58.16;;
64996;Laerm;51545;51.568;6.998;2023-11-22T07:39:36;47.71;42.82;71.28;;
64996;Laerm;51545;51.568;6.998;2023-11-22T07:42:02;46.55;42.83;58.08;;
64996;Laerm;51545;51.568;6.998;2023-11-22T07:44:32;49.14;43.28;67.75;;
64996;Laerm;51545;51.568;6.998;2023-11-22T07:46:59;48.67;43.52;61.37;;
64996;Laerm;51545;51.568;6.998;2023-11-22T07:49:26;51.02;44.48;59.72;;
64996;Laerm;51545;51.568;6.998;2023-11-22T07:51:52;51.48;44.09;70.24;;
64996;Laerm;51545;51.568;6.998;2023-11-22T07:54:22;49.88;42.65;69.36;;
64996;Laerm;51545;51.568;6.998;2023-11-22T07:56:52;48.99;42.95;66.97;;
64996;Laerm;51545;51.568;6.998;2023-11-22T07:59:18;46.72;43.61;54.34;;
64996;Laerm;51545;51.568;6.998;2023-11-22T08:01:45;47.17;42.85;62.14;;
64996;Laerm;51545;51.568;6.998;2023-11-22T08:04:14;45.59;42.50;54.22;;
64996;Laerm;51545;51.568;6.998;2023-11-22T08:06:40;50.22;43.91;59.70;;
64996;Laerm;51545;51.568;6.998;2023-11-22T08:09:08;45.27;42.12;59.53;;
64996;Laerm;51545;51.568;6.998;2023-11-22T08:11:36;44.83;41.43;50.73;;
64996;Laerm;51545;51.568;6.998;2023-11-22T08:14:03;45.13;42.05;54.44;;
64996;Laerm;51545;51.568;6.998;2023-11-22T08:16:29;45.52;42.41;52.23;;
64996;Laerm;51545;51.568;6.998;2023-11-22T08:18:56;45.12;42.49;54.96;;
64996;Laerm;51545;51.568;6.998;2023-11-22T08:21:23;44.67;41.93;53.80;;
64996;Laerm;51545;51.568;6.998;2023-11-22T08:23:49;46.21;40.91;65.69;;
64996;Laerm;51545;51.568;6.998;2023-11-22T08:26:15;44.23;40.88;61.43;;
64996;Laerm;51545;51.568;6.998;2023-11-22T08:28:44;44.55;41.45;56.77;;
64996;Laerm;51545;51.568;6.998;2023-11-22T08:31:10;43.63;40.24;54.86;;
64996;Laerm;51545;51.568;6.998;2023-11-22T08:33:39;45.34;40.50;59.13;;
64996;Laerm;51545;51.568;6.998;2023-11-22T08:36:09;47.31;40.57;62.94;;
64996;Laerm;51545;51.568;6.998;2023-11-22T08:38:35;45.58;40.03;55.63;;
64996;Laerm;51545;51.568;6.998;2023-11-22T08:41:03;45.81;40.74;61.24;;
64996;Laerm;51545;51.568;6.998;2023-11-22T08:43:32;43.29;40.25;48.49;;
64996;Laerm;51545;51.568;6.998;2023-11-22T08:45:59;59.72;40.72;84.77;;
64996;Laerm;51545;51.568;6.998;2023-11-22T08:48:26;51.88;40.83;74.70;;
64996;Laerm;51545;51.568;6.998;2023-11-22T08:50:55;48.05;40.64;61.36;;
64996;Laerm;51545;51.568;6.998;2023-11-22T08:53:26;47.16;41.45;61.03;;
64996;Laerm;51545;51.568;6.998;2023-11-22T08:55:54;45.33;41.10;55.90;;
64996;Laerm;51545;51.568;6.998;2023-11-22T08:58:21;49.03;42.04;57.16;;
64996;Laerm;51545;51.568;6.998;2023-11-22T09:00:48;48.57;39.76;65.57;;
64996;Laerm;51545;51.568;6.998;2023-11-22T09:03:14;47.36;40.00;58.86;;
64996;Laerm;51545;51.568;6.998;2023-11-22T09:05:43;48.83;38.68;66.68;;
64996;Laerm;51545;51.568;6.998;2023-11-22T09:08:15;46.74;38.44;60.30;;
64996;Laerm;51545;51.568;6.998;2023-11-22T09:10:44;43.37;39.56;55.80;;
64996;Laerm;51545;51.568;6.998;2023-11-22T09:13:15;44.89;39.97;63.06;;
64996;Laerm;51545;51.568;6.998;2023-11-22T09:15:44;44.94;38.70;54.56;;
64996;Laerm;51545;51.568;6.998;2023-11-22T09:18:12;42.64;38.49;51.64;;
64996;Laerm;51545;51.568;6.998;2023-11-22T09:20:38;42.42;38.00;53.44;;
64996;Laerm;51545;51.568;6.998;2023-11-22T09:23:04;47.39;39.36;61.98;;
64996;Laerm;51545;51.568;6.998;2023-11-22T09:25:31;44.53;36.73;58.98;;
64996;Laerm;51545;51.568;6.998;2023-11-22T09:27:59;45.95;37.82;64.40;;
64996;Laerm;51545;51.568;6.998;2023-11-22T09:30:41;44.65;41.49;55.16;;
64996;Laerm;51545;51.568;6.998;2023-11-22T09:33:16;43.42;39.74;48.07;;
64996;Laerm;51545;51.568;6.998;2023-11-22T09:35:47;47.37;39.14;56.78;;
64996;Laerm;51545;51.568;6.998;2023-11-22T09:38:13;43.08;39.79;50.56;;
64996;Laerm;51545;51.568;6.998;2023-11-22T09:40:44;47.05;39.65;60.64;;
64996;Laerm;51545;51.568;6.998;2023-11-22T09:43:11;44.24;39.45;52.95;;
64996;Laerm;51545;51.568;6.998;2023-11-22T09:45:41;43.59;38.68;59.40;;
64996;Laerm;51545;51.568;6.998;2023-11-22T09:48:18;44.61;40.33;58.35;;
64996;Laerm;51545;51.568;6.998;2023-11-22T09:50:57;49.41;41.26;66.07;;
64996;Laerm;51545;51.568;6.998;2023-11-22T09:53:34;45.69;38.00;57.55;;
64996;Laerm;51545;51.568;6.998;2023-11-22T09:56:03;46.37;37.57;52.82;;
64996;Laerm;51545;51.568;6.998;2023-11-22T09:58:31;46.21;40.29;60.39;;
64996;Laerm;51545;51.568;6.998;2023-11-22T10:01:03;45.05;38.69;55.93;;
64996;Laerm;51545;51.568;6.998;2023-11-22T10:03:31;46.62;40.55;55.75;;
64996;Laerm;51545;51.568;6.998;2023-11-22T10:05:59;45.29;39.39;70.68;;
64996;Laerm;51545;51.568;6.998;2023-11-22T10:08:30;42.53;37.47;54.90;;
64996;Laerm;51545;51.568;6.998;2023-11-22T10:10:57;41.80;36.46;52.31;;
64996;Laerm;51545;51.568;6.998;2023-11-22T10:13:23;48.93;38.53;62.40;;
64996;Laerm;51545;51.568;6.998;2023-11-22T10:15:50;44.47;39.54;55.52;;
64996;Laerm;51545;51.568;6.998;2023-11-22T10:18:18;42.30;37.72;61.54;;
64996;Laerm;51545;51.568;6.998;2023-11-22T10:20:49;46.27;39.43;67.64;;
64996;Laerm;51545;51.568;6.998;2023-11-22T10:23:18;62.83;42.75;77.93;;
64996;Laerm;51545;51.568;6.998;2023-11-22T10:25:52;46.88;40.42;67.49;;
64996;Laerm;51545;51.568;6.998;2023-11-22T10:28:19;47.38;38.95;62.88;;
64996;Laerm;51545;51.568;6.998;2023-11-22T10:30:47;43.28;39.60;57.61;;
64996;Laerm;51545;51.568;6.998;2023-11-22T10:33:18;43.88;39.97;54.90;;
64996;Laerm;51545;51.568;6.998;2023-11-22T10:35:49;44.55;39.10;67.64;;
64996;Laerm;51545;51.568;6.998;2023-11-22T10:38:17;43.23;37.89;53.41;;
64996;Laerm;51545;51.568;6.998;2023-11-22T10:40:45;44.94;37.74;63.87;;
64996;Laerm;51545;51.568;6.998;2023-11-22T10:43:12;45.83;38.84;61.67;;
64996;Laerm;51545;51.568;6.998;2023-11-22T10:45:38;45.76;38.30;60.29;;
64996;Laerm;51545;51.568;6.998;2023-11-22T10:48:09;42.86;38.76;49.56;;
64996;Laerm;51545;51.568;6.998;2023-11-22T10:50:37;45.06;38.95;59.62;;
64996;Laerm;51545;51.568;6.998;2023-11-22T10:53:07;44.64;38.10;61.72;;
64996;Laerm;51545;51.568;6.998;2023-11-22T10:55:38;48.92;39.57;64.49;;
64996;Laerm;51545;51.568;6.998;2023-11-22T10:58:08;44.56;39.99;53.75;;
64996;Laerm;51545;51.568;6.998;2023-11-22T11:00:41;44.37;38.80;61.63;;
64996;Laerm;51545;51.568;6.998;2023-11-22T11:03:28;45.82;38.09;70.07;;
64996;Laerm;51545;51.568;6.998;2023-11-22T11:06:04;44.01;39.61;59.08;;
64996;Laerm;51545;51.568;6.998;2023-11-22T11:08:38;51.62;39.65;64.53;;
64996;Laerm;51545;51.568;6.998;2023-11-22T11:11:04;43.24;39.69;56.70;;
64996;Laerm;51545;51.568;6.998;2023-11-22T11:13:31;49.60;41.06;58.67;;
64996;Laerm;51545;51.568;6.998;2023-11-22T11:15:58;42.83;37.98;56.92;;
64996;Laerm;51545;51.568;6.998;2023-11-22T11:18:25;41.96;37.33;51.01;;
64996;Laerm;51545;51.568;6.998;2023-11-22T11:20:59;42.62;36.43;47.12;;
64996;Laerm;51545;51.568;6.998;2023-11-22T11:23:26;43.20;38.14;56.98;;
64996;Laerm;51545;51.568;6.998;2023-11-22T11:25:54;43.65;38.17;63.40;;
64996;Laerm;51545;51.568;6.998;2023-11-22T11:28:24;46.05;39.18;57.80;;
64996;Laerm;51545;51.568;6.998;2023-11-22T11:30:53;49.21;40.27;58.85;;
64996;Laerm;51545;51.568;6.998;2023-11-22T11:33:32;57.28;39.03;72.68;;
64996;Laerm;51545;51.568;6.998;2023-11-22T11:36:03;45.09;37.65;57.25;;
64996;Laerm;51545;51.568;6.998;2023-11-22T11:38:37;42.64;38.30;52.13;;
64996;Laerm;51545;51.568;6.998;2023-11-22T11:41:10;45.46;40.11;56.11;;
64996;Laerm;51545;51.568;6.998;2023-11-22T11:43:45;45.09;38.78;58.53;;
64996;Laerm;51545;51.568;6.998;2023-11-22T11:46:16;43.21;38.45;61.16;;
64996;Laerm;51545;51.568;6.998;2023-11-22T11:48:45;52.39;38.73;66.00;;
64996;Laerm;51545;51.568;6.998;2023-11-22T11:51:38;42.52;38.33;53.79;;
64996;Laerm;51545;51.568;6.998;2023-11-22T11:54:05;43.01;38.69;49.53;;
64996;Laerm;51545;51.568;6.998;2023-11-22T11:56:33;49.32;37.34;68.02;;
64996;Laerm;51545;51.568;6.998;2023-11-22T11:58:59;48.07;39.38;63.18;;
64996;Laerm;51545;51.568;6.998;2023-11-22T12:01:31;41.91;38.06;54.76;;
64996;Laerm;51545;51.568;6.998;2023-11-22T12:04:00;46.55;39.88;72.42;;
64996;Laerm;51545;51.568;6.998;2023-11-22T12:06:28;42.31;37.04;52.23;;
64996;Laerm;51545;51.568;6.998;2023-11-22T12:08:54;54.34;37.61;65.24;;
64996;Laerm;51545;51.568;6.998;2023-11-22T12:11:20;52.13;40.56;63.08;;
64996;Laerm;51545;51.568;6.998;2023-11-22T12:13:49;44.58;39.24;58.44;;
64996;Laerm;51545;51.568;6.998;2023-11-22T12:16:17;46.20;37.72;61.26;;
64996;Laerm;51545;51.568;6.998;2023-11-22T12:18:48;43.63;39.08;56.86;;
64996;Laerm;51545;51.568;6.998;2023-11-22T12:21:16;45.14;38.98;64.54;;
64996;Laerm;51545;51.568;6.998;2023-11-22T12:23:43;43.50;38.18;55.34;;
64996;Laerm;51545;51.568;6.998;2023-11-22T12:26:11;43.97;39.59;52.42;;
64996;Laerm;51545;51.568;6.998;2023-11-22T12:28:40;42.45;38.57;48.89;;
64996;Laerm;51545;51.568;6.998;2023-11-22T12:31:10;42.60;38.76;58.02;;
64996;Laerm;51545;51.568;6.998;2023-11-22T12:33:37;44.89;39.24;59.06;;
64996;Laerm;51545;51.568;6.998;2023-11-22T12:36:04;44.98;40.70;50.64;;
64996;Laerm;51545;51.568;6.998;2023-11-22T12:38:30;48.03;40.09;57.17;;
64996;Laerm;51545;51.568;6.998;2023-11-22T12:40:59;42.10;37.68;55.66;;
64996;Laerm;51545;51.568;6.998;2023-11-22T12:43:29;46.14;37.74;59.94;;
64996;Laerm;51545;51.568;6.998;2023-11-22T12:46:05;63.89;38.98;88.95;;
64996;Laerm;51545;51.568;6.998;2023-11-22T12:48:41;42.35;39.06;52.45;;
64996;Laerm;51545;51.568;6.998;2023-11-22T12:51:18;44.03;38.67;59.82;;
64996;Laerm;51545;51.568;6.998;2023-11-22T12:53:50;42.69;39.23;57.18;;
64996;Laerm;51545;51.568;6.998;2023-11-22T12:56:16;43.51;38.48;60.54;;
64996;Laerm;51545;51.568;6.998;2023-11-22T12:58:42;43.90;39.59;52.03;;
64996;Laerm;51545;51.568;6.998;2023-11-22T13:01:08;48.57;40.06;60.98;;
64996;Laerm;51545;51.568;6.998;2023-11-22T13:03:34;45.78;40.08;62.77;;
64996;Laerm;51545;51.568;6.998;2023-11-22T13:06:01;65.82;43.93;85.45;;
64996;Laerm;51545;51.568;6.998;2023-11-22T13:08:29;50.90;38.43;63.39;;
64996;Laerm;51545;51.568;6.998;2023-11-22T13:10:57;43.22;38.13;52.28;;
64996;Laerm;51545;51.568;6.998;2023-11-22T13:13:25;46.33;40.10;66.61;;
64996;Laerm;51545;51.568;6.998;2023-11-22T13:15:52;45.61;39.10;60.63;;
64996;Laerm;51545;51.568;6.998;2023-11-22T13:18:18;42.70;38.46;55.92;;
64996;Laerm;51545;51.568;6.998;2023-11-22T13:20:45;46.02;40.47;63.40;;
64996;Laerm;51545;51.568;6.998;2023-11-22T13:23:12;46.79;38.78;68.75;;
64996;Laerm;51545;51.568;6.998;2023-11-22T13:25:41;43.50;37.54;57.47;;
64996;Laerm;51545;51.568;6.998;2023-11-22T13:28:08;48.56;42.63;58.77;;
64996;Laerm;51545;51.568;6.998;2023-11-22T13:30:34;44.86;40.20;56.44;;
64996;Laerm;51545;51.568;6.998;2023-11-22T13:33:02;46.22;40.09;58.21;;
64996;Laerm;51545;51.568;6.998;2023-11-22T13:35:31;47.14;41.05;56.23;;
64996;Laerm;51545;51.568;6.998;2023-11-22T13:37:58;44.69;39.56;56.30;;
64996;Laerm;51545;51.568;6.998;2023-11-22T13:40:27;47.12;40.89;58.36;;
64996;Laerm;51545;51.568;6.998;2023-11-22T13:42:57;45.77;39.63;57.87;;
64996;Laerm;51545;51.568;6.998;2023-11-22T13:45:23;44.92;39.62;56.04;;
64996;Laerm;51545;51.568;6.998;2023-11-22T13:47:53;44.38;39.40;55.07;;
64996;Laerm;51545;51.568;6.998;2023-11-22T13:50:26;44.55;38.16;57.07;;
64996;Laerm;51545;51.568;6.998;2023-11-22T13:52:54;44.42;40.26;55.48;;